Time;durP1;ratioP1;P1;durP2;ratioP2;P2;SDS_P1;SDS_P2;PMS_P1;PMS_P2;Temp;Humidity;BMP_temperature;BMP_pressure;BME280_temperature;BME280_humidity;BME280_pressure;Samples;Min_cycle;Max_cycle;Signal;HPM_P1;HPM_P2
2022/03/24 00:00:36;;;;;;;;;;;;;;;;;;1911261;28;7120;-67
2022/03/24 00:01:33;;;;;;;;;;;;;;;;;;1910992;28;7021;-66
2022/03/24 00:02:31;;;;;;;;;;;;;;;;;;1913164;28;7046;-64
2022/03/24 00:03:29;;;;;;;;;;;;;;;;;;1912544;28;7117;-67
2022/03/24 00:04:26;;;;;;;;;;;;;;;;;;1912508;28;7103;-68
2022/03/24 00:05:24;;;;;;;;;;;;;;;;;;1912830;28;7113;-66
2022/03/24 00:06:21;;;;;;;;;;;;;;;;;;1912492;28;7005;-67
2022/03/24 00:07:18;;;;;;;;;;;;;;;;;;1911440;28;7021;-68
2022/03/24 00:08:16;;;;;;;;;;;;;;;;;;1912686;28;7013;-66
2022/03/24 00:09:13;;;;;;;;;;;;;;;;;;1913000;28;7005;-65
2022/03/24 00:10:11;;;;;;;;;;;;;;;;;;1911524;28;7190;-67
2022/03/24 00:11:08;;;;;;;;;;;;;;;;;;1911037;28;8023;-67
2022/03/24 00:12:06;;;;;;;;;;;;;;;;;;1911779;28;7161;-66
2022/03/24 00:13:03;;;;;;;;;;;;;;;;;;1911680;28;7810;-67
2022/03/24 00:14:00;;;;;;;;;;;;;;;;;;1910972;28;7017;-67
2022/03/24 00:14:58;;;;;;;;;;;;;;;;;;1910199;28;8056;-67
2022/03/24 00:15:55;;;;;;;;;;;;;;;;;;1912865;28;7100;-67
2022/03/24 00:16:53;;;;;;;;;;;;;;;;;;1912392;28;7116;-66
2022/03/24 00:17:50;;;;;;;;;;;;;;;;;;1912982;28;7009;-67
2022/03/24 00:18:48;;;;;;;;;;;;;;;;;;1912739;28;7121;-64
2022/03/24 00:19:46;;;;;;;;;;;;;;;;;;1912431;28;7061;-66
2022/03/24 00:20:43;;;;;;;;;;;;;;;;;;1912605;28;7005;-67
2022/03/24 00:21:41;;;;;;;;;;;;;;;;;;1911705;28;7132;-65
2022/03/24 00:22:39;;;;;;;;;;;;;;;;;;1912357;28;7001;-66
2022/03/24 00:23:36;;;;;;;;;;;;;;;;;;1911253;28;7041;-65
2022/03/24 00:24:34;;;;;;;;;;;;;;;;;;1912436;28;7132;-65
2022/03/24 00:25:31;;;;;;;;;;;;;;;;;;1912455;28;7108;-64
2022/03/24 00:26:29;;;;;;;;;;;;;;;;;;1912812;28;7022;-66
2022/03/24 00:27:27;;;;;;;;;;;;;;;;;;1910526;28;7146;-67
2022/03/24 00:28:24;;;;;;;;;;;;;;;;;;1911950;28;7105;-67
2022/03/24 00:29:21;;;;;;;;;;;;;;;;;;1912884;28;7456;-66
2022/03/24 00:30:19;;;;;;;;;;;;;;;;;;1912678;28;8048;-65
2022/03/24 00:31:16;;;;;;;;;;;;;;;;;;1912305;28;7002;-65
2022/03/24 00:32:14;;;;;;;;;;;;;;;;;;1912204;28;7141;-65
2022/03/24 00:33:12;;;;;;;;;;;;;;;;;;1912238;28;7088;-64
2022/03/24 00:34:10;;;;;;;;;;;;;;;;;;1912245;28;8005;-67
2022/03/24 00:35:08;;;;;;;;;;;;;;;;;;1911720;28;7092;-66
2022/03/24 00:36:05;;;;;;;;;;;;;;;;;;1911886;28;7304;-66
2022/03/24 00:37:04;;;;;;;;;;;;;;;;;;1912442;28;7120;-66
2022/03/24 00:38:01;;;;;;;;;;;;;;;;;;1912297;28;7288;-66
2022/03/24 00:38:59;;;;;;;;;;;;;;;;;;1912603;28;7009;-64
2022/03/24 00:39:56;;;;;;;;;;;;;;;;;;1912197;28;8042;-67
2022/03/24 00:40:55;;;;;;;;;;;;;;;;;;1912392;28;7092;-67
2022/03/24 00:41:52;;;;;;;;;;;;;;;;;;1912548;28;7009;-66
2022/03/24 00:42:50;;;;;;;;;;;;;;;;;;1912653;28;7140;-65
2022/03/24 00:43:48;;;;;;;;;;;;;;;;;;1912884;28;7009;-66
2022/03/24 00:44:46;;;;;;;;;;;;;;;;;;1912388;28;7148;-65
2022/03/24 00:45:43;;;;;;;;;;;;;;;;;;1912162;28;7097;-67
2022/03/24 00:46:40;;;;;;;;;;;;;;;;;;1912328;28;8051;-67
2022/03/24 00:47:39;;;;;;;;;;;;;;;;;;1912264;28;7005;-67
2022/03/24 00:48:37;;;;;;;;;;;;;;;;;;1912257;28;7097;-67
2022/03/24 00:49:34;;;;;;;;;;;;;;;;;;1911964;28;7096;-64
2022/03/24 00:50:32;;;;;;;;;;;;;;;;;;1912600;28;7096;-65
2022/03/24 00:51:29;;;;;;;;;;;;;;;;;;1912416;28;7005;-66
2022/03/24 00:52:26;;;;;;;;;;;;;;;;;;1912636;28;7045;-64
2022/03/24 00:53:24;;;;;;;;;;;;;;;;;;1912133;28;7025;-68
2022/03/24 00:54:22;;;;;;;;;;;;;;;;;;1912354;28;7009;-68
2022/03/24 00:55:20;;;;;;;;;;;;;;;;;;1912291;28;7100;-67
2022/03/24 00:56:18;;;;;;;;;;;;;;;;;;1912137;28;7092;-66
2022/03/24 00:57:16;;;;;;;;;;;;;;;;;;1912494;28;7046;-67
2022/03/24 00:58:14;;;;;;;;;;;;;;;;;;1912375;28;7029;-68
2022/03/24 00:59:11;;;;;;;;;;;;;;;;;;1912489;28;7010;-67
2022/03/24 01:00:12;;;;;;;;;;;;;;;;;;1912474;28;7005;-66
2022/03/24 01:01:12;;;;;;;;;;;;;;;;;;1911847;28;7045;-65
2022/03/24 01:02:10;;;;;;;;;;;;;;;;;;1911426;28;7113;-65
2022/03/24 01:03:09;;;;;;;;;;;;;;;;;;1912319;28;7092;-65
2022/03/24 01:04:07;;;;;;;;;;;;;;;;;;1912116;28;7111;-63
2022/03/24 01:05:08;;;;;;;;;;;;;;;;;;1912400;28;7089;-67
2022/03/24 01:06:07;;;;;;;;;;;;;;;;;;1911378;28;7013;-65
2022/03/24 01:07:04;;;;;;;;;;;;;;;;;;1912111;28;7002;-66
2022/03/24 01:08:02;;;;;;;;;;;;;;;;;;1912095;28;7038;-68
2022/03/24 01:09:00;;;;;;;;;;;;;;;;;;1911315;28;7211;-65
2022/03/24 01:09:57;;;;;;;;;;;;;;;;;;1912628;28;7054;-64
2022/03/24 01:10:55;;;;;;;;;;;;;;;;;;1911827;28;7117;-67
2022/03/24 01:11:52;;;;;;;;;;;;;;;;;;1911987;28;7005;-65
2022/03/24 01:12:50;;;;;;;;;;;;;;;;;;1912710;28;7009;-65
2022/03/24 01:13:47;;;;;;;;;;;;;;;;;;1911494;28;7017;-66
2022/03/24 01:14:50;;;;;;;;;;;;;;;;;;1912389;28;7025;-65
2022/03/24 01:15:50;;;;;;;;;;;;;;;;;;1912031;28;7009;-63
2022/03/24 01:16:50;;;;;;;;;;;;;;;;;;1912031;28;7941;-65
2022/03/24 01:17:47;;;;;;;;;;;;;;;;;;1911902;28;7093;-66
2022/03/24 01:18:45;;;;;;;;;;;;;;;;;;1912091;28;8070;-65
2022/03/24 01:19:44;;;;;;;;;;;;;;;;;;1911162;28;7010;-65
2022/03/24 01:20:42;;;;;;;;;;;;;;;;;;1911161;28;7324;-62
2022/03/24 01:21:39;;;;;;;;;;;;;;;;;;1910528;28;7097;-66
2022/03/24 01:22:37;;;;;;;;;;;;;;;;;;1910622;28;8474;-66
2022/03/24 01:23:34;;;;;;;;;;;;;;;;;;1912143;28;7022;-66
2022/03/24 01:24:32;;;;;;;;;;;;;;;;;;1912035;28;7130;-65
2022/03/24 01:25:29;;;;;;;;;;;;;;;;;;1911844;28;7005;-67
2022/03/24 01:26:27;;;;;;;;;;;;;;;;;;1912110;28;7046;-69
2022/03/24 01:27:26;;;;;;;;;;;;;;;;;;1912806;28;7065;-66
2022/03/24 01:28:23;;;;;;;;;;;;;;;;;;1910969;28;7309;-66
2022/03/24 01:29:21;;;;;;;;;;;;;;;;;;1911490;28;7093;-66
2022/03/24 01:30:20;;;;;;;;;;;;;;;;;;1911926;28;7006;-66
2022/03/24 01:31:17;;;;;;;;;;;;;;;;;;1911794;28;7042;-65
2022/03/24 01:32:15;;;;;;;;;;;;;;;;;;1911729;28;7384;-65
2022/03/24 01:33:13;;;;;;;;;;;;;;;;;;1912132;28;7005;-66
2022/03/24 01:34:11;;;;;;;;;;;;;;;;;;1912121;28;8047;-67
2022/03/24 01:35:09;;;;;;;;;;;;;;;;;;1912160;28;7001;-68
2022/03/24 01:36:06;;;;;;;;;;;;;;;;;;1910216;28;7089;-65
2022/03/24 01:37:07;;;;;;;;;;;;;;;;;;1911304;28;8322;-65
2022/03/24 01:38:05;;;;;;;;;;;;;;;;;;1911371;28;8023;-66
2022/03/24 01:39:02;;;;;;;;;;;;;;;;;;1912060;28;7138;-65
2022/03/24 01:40:00;;;;;;;;;;;;;;;;;;1911786;28;7331;-67
2022/03/24 01:40:58;;;;;;;;;;;;;;;;;;1912047;28;7395;-65
2022/03/24 01:41:56;;;;;;;;;;;;;;;;;;1912001;28;7242;-64
2022/03/24 01:42:54;;;;;;;;;;;;;;;;;;1912049;28;7220;-67
2022/03/24 01:43:52;;;;;;;;;;;;;;;;;;1912456;28;7096;-65
2022/03/24 01:44:49;;;;;;;;;;;;;;;;;;1912023;28;7186;-65
2022/03/24 01:45:48;;;;;;;;;;;;;;;;;;1904132;28;7006;-67
2022/03/24 01:46:56;;;;;;;;;;;;;;;;;;1904126;28;7006;-65
2022/03/24 01:47:53;;;;;;;;;;;;;;;;;;1911120;28;7025;-67
2022/03/24 01:48:51;;;;;;;;;;;;;;;;;;1911877;28;7005;-65
2022/03/24 01:49:48;;;;;;;;;;;;;;;;;;1912437;28;7009;-65
2022/03/24 01:50:46;;;;;;;;;;;;;;;;;;1912146;28;7120;-65
2022/03/24 01:51:43;;;;;;;;;;;;;;;;;;1912057;28;7042;-68
2022/03/24 01:52:43;;;;;;;;;;;;;;;;;;1912132;28;7142;-65
2022/03/24 01:53:40;;;;;;;;;;;;;;;;;;1911717;28;7147;-66
2022/03/24 01:54:40;;;;;;;;;;;;;;;;;;1911741;28;7025;-65
2022/03/24 01:55:42;;;;;;;;;;;;;;;;;;1911834;28;7108;-66
2022/03/24 01:56:40;;;;;;;;;;;;;;;;;;1910709;28;7021;-67
2022/03/24 01:57:39;;;;;;;;;;;;;;;;;;1912373;28;7046;-68
2022/03/24 01:58:38;;;;;;;;;;;;;;;;;;1912427;28;7133;-66
2022/03/24 01:59:37;;;;;;;;;;;;;;;;;;1910760;28;7006;-66
2022/03/24 02:00:34;;;;;;;;;;;;;;;;;;1911459;28;7556;-65
2022/03/24 02:01:36;;;;;;;;;;;;;;;;;;1911731;28;7021;-65
2022/03/24 02:02:37;;;;;;;;;;;;;;;;;;1911710;28;7116;-65
2022/03/24 02:03:36;;;;;;;;;;;;;;;;;;1911856;28;7009;-66
2022/03/24 02:04:37;;;;;;;;;;;;;;;;;;1911761;28;7435;-67
2022/03/24 02:05:37;;;;;;;;;;;;;;;;;;1911559;28;8043;-64
2022/03/24 02:06:35;;;;;;;;;;;;;;;;;;1912013;28;7037;-65
2022/03/24 02:07:32;;;;;;;;;;;;;;;;;;1897958;28;7158;-64
2022/03/24 02:08:30;;;;;;;;;;;;;;;;;;1896299;28;7014;-67
2022/03/24 02:09:27;;;;;;;;;;;;;;;;;;1907872;28;7110;-67
2022/03/24 02:10:25;;;;;;;;;;;;;;;;;;1911796;28;7034;-65
2022/03/24 02:11:25;;;;;;;;;;;;;;;;;;1910592;28;7042;-66
2022/03/24 02:12:25;;;;;;;;;;;;;;;;;;1911967;28;7013;-65
2022/03/24 02:13:23;;;;;;;;;;;;;;;;;;1911220;28;7164;-66
2022/03/24 02:14:21;;;;;;;;;;;;;;;;;;1911328;28;8091;-65
2022/03/24 02:15:18;;;;;;;;;;;;;;;;;;1911845;28;7092;-66
2022/03/24 02:16:16;;;;;;;;;;;;;;;;;;1911449;28;7088;-64
2022/03/24 02:17:18;;;;;;;;;;;;;;;;;;1910660;28;7024;-67
2022/03/24 02:18:15;;;;;;;;;;;;;;;;;;1911325;28;7092;-67
2022/03/24 02:19:14;;;;;;;;;;;;;;;;;;1911562;28;7034;-65
2022/03/24 02:20:11;;;;;;;;;;;;;;;;;;1910522;28;7046;-64
2022/03/24 02:21:12;;;;;;;;;;;;;;;;;;1911939;28;7009;-65
2022/03/24 02:22:11;;;;;;;;;;;;;;;;;;1911067;28;7308;-66
2022/03/24 02:23:08;;;;;;;;;;;;;;;;;;1912008;28;8059;-66
2022/03/24 02:24:06;;;;;;;;;;;;;;;;;;1911576;28;7042;-65
2022/03/24 02:25:03;;;;;;;;;;;;;;;;;;1911643;28;7005;-65
2022/03/24 02:26:02;;;;;;;;;;;;;;;;;;1910296;28;7005;-68
2022/03/24 02:27:02;;;;;;;;;;;;;;;;;;1911064;28;8035;-64
2022/03/24 02:28:02;;;;;;;;;;;;;;;;;;1898784;28;7176;-66
2022/03/24 02:29:00;;;;;;;;;;;;;;;;;;1898299;28;7128;-67
2022/03/24 02:29:58;;;;;;;;;;;;;;;;;;1911157;28;7050;-67
2022/03/24 02:30:56;;;;;;;;;;;;;;;;;;1911825;28;7078;-67
2022/03/24 02:31:53;;;;;;;;;;;;;;;;;;1910064;28;7005;-65
2022/03/24 02:32:52;;;;;;;;;;;;;;;;;;1909464;28;7550;-66
2022/03/24 02:34:37;;;;;;;;;;;;;;;;;;1911581;28;7324;-67
2022/03/24 02:35:09;;;;;;;;;;;;;;;;;;1910859;28;7126;-67
2022/03/24 02:36:07;;;;;;;;;;;;;;;;;;1911295;28;7121;-66
2022/03/24 02:37:07;;;;;;;;;;;;;;;;;;1910449;28;7048;-67
2022/03/24 02:38:05;;;;;;;;;;;;;;;;;;1911626;28;7129;-66
2022/03/24 02:39:03;;;;;;;;;;;;;;;;;;1911559;28;8403;-66
2022/03/24 02:40:00;;;;;;;;;;;;;;;;;;1912425;28;7084;-67
2022/03/24 02:40:58;;;;;;;;;;;;;;;;;;1912147;28;8050;-67
2022/03/24 02:41:59;;;;;;;;;;;;;;;;;;1911878;28;7009;-68
2022/03/24 02:42:56;;;;;;;;;;;;;;;;;;1911629;28;8023;-65
2022/03/24 02:43:54;;;;;;;;;;;;;;;;;;1911696;28;7009;-66
2022/03/24 02:44:53;;;;;;;;;;;;;;;;;;1911648;28;7148;-65
2022/03/24 02:45:53;;;;;;;;;;;;;;;;;;1911817;28;7960;-68
2022/03/24 02:46:53;;;;;;;;;;;;;;;;;;1911086;28;7260;-65
2022/03/24 02:47:50;;;;;;;;;;;;;;;;;;1912153;28;7112;-65
2022/03/24 02:48:48;;;;;;;;;;;;;;;;;;1912134;28;8095;-66
2022/03/24 02:49:46;;;;;;;;;;;;;;;;;;1911159;28;7010;-67
2022/03/24 02:50:44;;;;;;;;;;;;;;;;;;1911934;28;7316;-65
2022/03/24 02:51:42;;;;;;;;;;;;;;;;;;1903303;28;7092;-68
2022/03/24 02:52:39;;;;;;;;;;;;;;;;;;1903876;28;8051;-67
2022/03/24 02:53:37;;;;;;;;;;;;;;;;;;1909404;28;7507;-67
2022/03/24 02:54:35;;;;;;;;;;;;;;;;;;1911776;28;7001;-65
2022/03/24 02:55:32;;;;;;;;;;;;;;;;;;1903680;28;7837;-65
2022/03/24 02:56:30;;;;;;;;;;;;;;;;;;1895105;28;7292;-64
2022/03/24 02:57:28;;;;;;;;;;;;;;;;;;1900732;28;7017;-65
2022/03/24 02:58:25;;;;;;;;;;;;;;;;;;1904238;28;7113;-67
2022/03/24 02:59:23;;;;;;;;;;;;;;;;;;1904154;28;7104;-66
2022/03/24 03:00:22;;;;;;;;;;;;;;;;;;1903492;28;7113;-65
2022/03/24 03:01:21;;;;;;;;;;;;;;;;;;1904029;28;7029;-67
2022/03/24 03:02:18;;;;;;;;;;;;;;;;;;1904787;28;7033;-65
2022/03/24 03:03:16;;;;;;;;;;;;;;;;;;1903776;28;7038;-66
2022/03/24 03:04:14;;;;;;;;;;;;;;;;;;1904058;28;7017;-67
2022/03/24 03:05:11;;;;;;;;;;;;;;;;;;1903352;28;7017;-66
2022/03/24 03:06:08;;;;;;;;;;;;;;;;;;1903860;28;7096;-68
2022/03/24 03:07:06;;;;;;;;;;;;;;;;;;1904128;28;7120;-66
2022/03/24 03:08:03;;;;;;;;;;;;;;;;;;1904216;28;7021;-66
2022/03/24 03:09:02;;;;;;;;;;;;;;;;;;1900559;28;7038;-66
2022/03/24 03:09:59;;;;;;;;;;;;;;;;;;1899663;28;7148;-67
2022/03/24 03:10:57;;;;;;;;;;;;;;;;;;1904138;28;7109;-67
2022/03/24 03:11:56;;;;;;;;;;;;;;;;;;1903775;28;7205;-66
2022/03/24 03:12:54;;;;;;;;;;;;;;;;;;1903590;28;7155;-66
2022/03/24 03:13:52;;;;;;;;;;;;;;;;;;1902171;28;7064;-66
2022/03/24 03:14:49;;;;;;;;;;;;;;;;;;1904413;28;7112;-66
2022/03/24 03:15:47;;;;;;;;;;;;;;;;;;1904210;28;7029;-66
2022/03/24 03:16:45;;;;;;;;;;;;;;;;;;1896908;28;7633;-68
2022/03/24 03:17:43;;;;;;;;;;;;;;;;;;1898925;28;7017;-64
2022/03/24 03:18:43;;;;;;;;;;;;;;;;;;1903410;28;7108;-66
2022/03/24 03:19:42;;;;;;;;;;;;;;;;;;1904035;28;7062;-66
2022/03/24 03:20:40;;;;;;;;;;;;;;;;;;1902549;28;7335;-65
2022/03/24 03:21:39;;;;;;;;;;;;;;;;;;1904055;28;7017;-66
2022/03/24 03:22:36;;;;;;;;;;;;;;;;;;1903183;28;7364;-67
2022/03/24 03:23:33;;;;;;;;;;;;;;;;;;1904361;28;8054;-67
2022/03/24 03:24:31;;;;;;;;;;;;;;;;;;1904019;28;7038;-64
2022/03/24 03:25:29;;;;;;;;;;;;;;;;;;1902364;28;7105;-65
2022/03/24 03:26:27;;;;;;;;;;;;;;;;;;1903553;28;7088;-66
2022/03/24 03:27:24;;;;;;;;;;;;;;;;;;1903446;28;7100;-66
2022/03/24 03:28:22;;;;;;;;;;;;;;;;;;1904007;28;7100;-64
2022/03/24 03:29:22;;;;;;;;;;;;;;;;;;1903876;28;7109;-67
2022/03/24 03:30:20;;;;;;;;;;;;;;;;;;1904496;28;7383;-66
2022/03/24 03:31:21;;;;;;;;;;;;;;;;;;1902804;28;7024;-65
2022/03/24 03:32:20;;;;;;;;;;;;;;;;;;1904050;28;7006;-66
2022/03/24 03:33:17;;;;;;;;;;;;;;;;;;1903111;28;7033;-67
2022/03/24 03:34:15;;;;;;;;;;;;;;;;;;1904000;28;7097;-66
2022/03/24 03:35:12;;;;;;;;;;;;;;;;;;1895761;28;7092;-67
2022/03/24 03:36:09;;;;;;;;;;;;;;;;;;1895663;28;7033;-65
2022/03/24 03:37:07;;;;;;;;;;;;;;;;;;1902486;28;7101;-66
2022/03/24 03:38:05;;;;;;;;;;;;;;;;;;1902568;28;7137;-67
2022/03/24 03:39:02;;;;;;;;;;;;;;;;;;1903945;28;7100;-67
2022/03/24 03:40:00;;;;;;;;;;;;;;;;;;1902538;28;7014;-67
2022/03/24 03:40:59;;;;;;;;;;;;;;;;;;1903594;28;7120;-67
2022/03/24 03:41:57;;;;;;;;;;;;;;;;;;1902243;28;7026;-66
2022/03/24 03:42:55;;;;;;;;;;;;;;;;;;1903822;28;8111;-66
2022/03/24 03:43:53;;;;;;;;;;;;;;;;;;1903596;28;7006;-66
2022/03/24 03:44:50;;;;;;;;;;;;;;;;;;1904286;28;7029;-64
2022/03/24 03:45:48;;;;;;;;;;;;;;;;;;1904048;28;7006;-65
2022/03/24 03:46:46;;;;;;;;;;;;;;;;;;1904106;28;7070;-67
2022/03/24 03:47:43;;;;;;;;;;;;;;;;;;1905328;28;7006;-66
2022/03/24 03:48:41;;;;;;;;;;;;;;;;;;1904990;28;7009;-65
2022/03/24 03:49:38;;;;;;;;;;;;;;;;;;1905067;28;7149;-63
2022/03/24 03:50:53;;;;;;;;;;;;;;;;;;1905255;28;7097;-66
2022/03/24 03:51:51;;;;;;;;;;;;;;;;;;1903676;28;7097;-66
2022/03/24 03:52:48;;;;;;;;;;;;;;;;;;1905369;28;7001;-67
2022/03/24 03:53:46;;;;;;;;;;;;;;;;;;1905304;28;7042;-65
2022/03/24 03:54:44;;;;;;;;;;;;;;;;;;1905648;28;7026;-66
2022/03/24 03:55:41;;;;;;;;;;;;;;;;;;1904991;28;7026;-65
2022/03/24 03:56:40;;;;;;;;;;;;;;;;;;1904884;28;7376;-65
2022/03/24 03:57:37;;;;;;;;;;;;;;;;;;1904507;28;7034;-66
2022/03/24 03:58:36;;;;;;;;;;;;;;;;;;1904605;28;7017;-67
2022/03/24 03:59:33;;;;;;;;;;;;;;;;;;1904794;28;8366;-65
2022/03/24 04:02:04;;;;;;;;;;;;;;;;;;1881689;28;7138;-66
2022/03/24 04:03:04;;;;;;;;;;;;;;;;;;1881900;28;7134;-67
2022/03/24 04:04:02;;;;;;;;;;;;;;;;;;1881499;28;7069;-67
2022/03/24 04:04:59;;;;;;;;;;;;;;;;;;1902341;28;7114;-65
2022/03/24 04:05:58;;;;;;;;;;;;;;;;;;1905844;28;7040;-68
2022/03/24 04:06:56;;;;;;;;;;;;;;;;;;1904905;28;7113;-66
2022/03/24 04:07:53;;;;;;;;;;;;;;;;;;1905140;28;7368;-65
2022/03/24 04:08:50;;;;;;;;;;;;;;;;;;1905281;28;7113;-68
2022/03/24 04:09:48;;;;;;;;;;;;;;;;;;1905197;28;7117;-65
2022/03/24 04:10:46;;;;;;;;;;;;;;;;;;1905613;28;7123;-65
2022/03/24 04:11:43;;;;;;;;;;;;;;;;;;1903819;28;7072;-66
2022/03/24 04:12:43;;;;;;;;;;;;;;;;;;1905433;28;7041;-63
2022/03/24 04:13:42;;;;;;;;;;;;;;;;;;1903106;28;7108;-64
2022/03/24 04:14:39;;;;;;;;;;;;;;;;;;1903531;28;7117;-65
2022/03/24 04:15:38;;;;;;;;;;;;;;;;;;1905002;28;7295;-66
2022/03/24 04:16:36;;;;;;;;;;;;;;;;;;1904820;28;7046;-66
2022/03/24 04:17:33;;;;;;;;;;;;;;;;;;1905033;28;7042;-65
2022/03/24 04:18:31;;;;;;;;;;;;;;;;;;1904390;28;7400;-66
2022/03/24 04:19:28;;;;;;;;;;;;;;;;;;1904660;28;7128;-66
2022/03/24 04:20:26;;;;;;;;;;;;;;;;;;1904180;28;7096;-65
2022/03/24 04:21:23;;;;;;;;;;;;;;;;;;1905080;28;7010;-67
2022/03/24 04:22:21;;;;;;;;;;;;;;;;;;1905029;28;7029;-67
2022/03/24 04:23:18;;;;;;;;;;;;;;;;;;1903399;28;8091;-67
2022/03/24 04:24:16;;;;;;;;;;;;;;;;;;1905182;28;7009;-64
2022/03/24 04:25:14;;;;;;;;;;;;;;;;;;1905040;28;7026;-67
2022/03/24 04:26:12;;;;;;;;;;;;;;;;;;1904514;28;7096;-66
2022/03/24 04:27:10;;;;;;;;;;;;;;;;;;1905273;28;7184;-67
2022/03/24 04:28:07;;;;;;;;;;;;;;;;;;1905304;28;7092;-64
2022/03/24 04:29:04;;;;;;;;;;;;;;;;;;1904538;28;7116;-67
2022/03/24 04:30:02;;;;;;;;;;;;;;;;;;1905158;28;9002;-66
2022/03/24 04:31:00;;;;;;;;;;;;;;;;;;1904834;28;7010;-64
2022/03/24 04:31:57;;;;;;;;;;;;;;;;;;1905068;28;7408;-67
2022/03/24 04:32:55;;;;;;;;;;;;;;;;;;1904514;28;8042;-66
2022/03/24 04:33:53;;;;;;;;;;;;;;;;;;1905049;28;7038;-65
2022/03/24 04:34:50;;;;;;;;;;;;;;;;;;1904457;28;7001;-67
2022/03/24 04:35:48;;;;;;;;;;;;;;;;;;1904465;28;7115;-65
2022/03/24 04:36:45;;;;;;;;;;;;;;;;;;1904980;28;7018;-66
2022/03/24 04:37:43;;;;;;;;;;;;;;;;;;1904802;28;7101;-63
2022/03/24 04:38:41;;;;;;;;;;;;;;;;;;1904581;28;7006;-66
2022/03/24 04:39:38;;;;;;;;;;;;;;;;;;1904825;28;8310;-65
2022/03/24 04:40:35;;;;;;;;;;;;;;;;;;1905173;28;7118;-65
2022/03/24 04:41:34;;;;;;;;;;;;;;;;;;1904693;28;7077;-64
2022/03/24 04:42:32;;;;;;;;;;;;;;;;;;1903186;28;7824;-66
2022/03/24 04:43:29;;;;;;;;;;;;;;;;;;1904196;28;7070;-67
2022/03/24 04:44:27;;;;;;;;;;;;;;;;;;1904518;28;7097;-66
2022/03/24 04:45:26;;;;;;;;;;;;;;;;;;1896384;28;7042;-67
2022/03/24 04:46:24;;;;;;;;;;;;;;;;;;1897341;28;7109;-68
2022/03/24 04:47:21;;;;;;;;;;;;;;;;;;1904569;28;7113;-65
2022/03/24 04:48:19;;;;;;;;;;;;;;;;;;1903686;28;7081;-65
2022/03/24 04:49:16;;;;;;;;;;;;;;;;;;1904653;28;7088;-66
2022/03/24 04:50:14;;;;;;;;;;;;;;;;;;1904574;28;7041;-64
2022/03/24 04:51:12;;;;;;;;;;;;;;;;;;1904681;28;7046;-66
2022/03/24 04:52:10;;;;;;;;;;;;;;;;;;1904643;28;7022;-65
2022/03/24 04:53:07;;;;;;;;;;;;;;;;;;1904847;28;7136;-66
2022/03/24 04:54:06;;;;;;;;;;;;;;;;;;1905012;28;7021;-66
2022/03/24 04:55:04;;;;;;;;;;;;;;;;;;1896802;28;7022;-67
2022/03/24 04:56:01;;;;;;;;;;;;;;;;;;1896484;28;7009;-66
2022/03/24 04:56:59;;;;;;;;;;;;;;;;;;1903464;28;7092;-65
2022/03/24 04:57:57;;;;;;;;;;;;;;;;;;1904387;28;7009;-67
2022/03/24 04:58:54;;;;;;;;;;;;;;;;;;1904745;28;7093;-65
2022/03/24 04:59:52;;;;;;;;;;;;;;;;;;1904627;28;7001;-65
2022/03/24 05:00:49;;;;;;;;;;;;;;;;;;1904871;28;7158;-67
2022/03/24 05:01:48;;;;;;;;;;;;;;;;;;1905351;28;7022;-64
2022/03/24 05:02:49;;;;;;;;;;;;;;;;;;1902859;28;7152;-67
2022/03/24 05:03:46;;;;;;;;;;;;;;;;;;1904684;28;7005;-66
2022/03/24 05:04:45;;;;;;;;;;;;;;;;;;1904293;28;7006;-66
2022/03/24 05:05:43;;;;;;;;;;;;;;;;;;1903436;28;7009;-66
2022/03/24 05:06:41;;;;;;;;;;;;;;;;;;1904186;28;8051;-66
2022/03/24 05:07:40;;;;;;;;;;;;;;;;;;1904592;28;7010;-64
2022/03/24 05:08:37;;;;;;;;;;;;;;;;;;1904492;28;7316;-65
2022/03/24 05:09:35;;;;;;;;;;;;;;;;;;1904670;28;7104;-65
2022/03/24 05:10:32;;;;;;;;;;;;;;;;;;1904477;28;7033;-66
2022/03/24 05:11:30;;;;;;;;;;;;;;;;;;1904512;28;7030;-65
2022/03/24 05:12:27;;;;;;;;;;;;;;;;;;1904249;28;7066;-65
2022/03/24 05:13:25;;;;;;;;;;;;;;;;;;1904575;28;7088;-67
2022/03/24 05:14:22;;;;;;;;;;;;;;;;;;1903473;28;7045;-64
2022/03/24 05:15:20;;;;;;;;;;;;;;;;;;1904844;28;7398;-65
2022/03/24 05:16:18;;;;;;;;;;;;;;;;;;1905509;28;7013;-65
2022/03/24 05:17:16;;;;;;;;;;;;;;;;;;1904491;28;7092;-66
2022/03/24 05:18:14;;;;;;;;;;;;;;;;;;1904514;28;7140;-65
2022/03/24 05:19:12;;;;;;;;;;;;;;;;;;1904236;28;7009;-67
2022/03/24 05:20:10;;;;;;;;;;;;;;;;;;1904152;28;7113;-64
2022/03/24 05:21:08;;;;;;;;;;;;;;;;;;1902907;28;8916;-67
2022/03/24 05:22:06;;;;;;;;;;;;;;;;;;1905469;28;7113;-63
2022/03/24 05:23:04;;;;;;;;;;;;;;;;;;1905503;28;7009;-66
2022/03/24 05:24:02;;;;;;;;;;;;;;;;;;1906343;28;7010;-65
2022/03/24 05:25:00;;;;;;;;;;;;;;;;;;1904309;28;7010;-67
2022/03/24 05:25:58;;;;;;;;;;;;;;;;;;1905105;28;7010;-67
2022/03/24 05:26:56;;;;;;;;;;;;;;;;;;1905368;28;7014;-67
2022/03/24 05:27:53;;;;;;;;;;;;;;;;;;1905497;28;7005;-67
2022/03/24 05:28:51;;;;;;;;;;;;;;;;;;1902991;28;7042;-65
2022/03/24 05:29:49;;;;;;;;;;;;;;;;;;1905268;28;7371;-67
2022/03/24 05:30:47;;;;;;;;;;;;;;;;;;1905348;28;7096;-66
2022/03/24 05:31:45;;;;;;;;;;;;;;;;;;1905869;28;7097;-65
2022/03/24 05:32:43;;;;;;;;;;;;;;;;;;1906097;28;7001;-65
2022/03/24 05:33:40;;;;;;;;;;;;;;;;;;1905070;28;7014;-67
2022/03/24 05:34:37;;;;;;;;;;;;;;;;;;1904551;28;7336;-66
2022/03/24 05:35:35;;;;;;;;;;;;;;;;;;1904841;28;7009;-65
2022/03/24 05:36:33;;;;;;;;;;;;;;;;;;1904849;28;7009;-68
2022/03/24 05:37:30;;;;;;;;;;;;;;;;;;1904027;28;7129;-68
2022/03/24 05:38:27;;;;;;;;;;;;;;;;;;1905088;28;7092;-65
2022/03/24 05:39:25;;;;;;;;;;;;;;;;;;1904237;28;7113;-67
2022/03/24 05:40:22;;;;;;;;;;;;;;;;;;1905388;28;7053;-68
2022/03/24 05:41:20;;;;;;;;;;;;;;;;;;1902732;28;7010;-65
2022/03/24 05:42:17;;;;;;;;;;;;;;;;;;1904520;28;7017;-66
2022/03/24 05:43:15;;;;;;;;;;;;;;;;;;1901941;28;7013;-65
2022/03/24 05:44:12;;;;;;;;;;;;;;;;;;1904754;28;7033;-67
2022/03/24 05:45:15;;;;;;;;;;;;;;;;;;1903992;28;7089;-67
2022/03/24 05:46:12;;;;;;;;;;;;;;;;;;1904524;28;7022;-65
2022/03/24 05:47:10;;;;;;;;;;;;;;;;;;1905030;28;7256;-67
2022/03/24 05:48:08;;;;;;;;;;;;;;;;;;1906309;28;7092;-68
2022/03/24 05:49:06;;;;;;;;;;;;;;;;;;1904517;28;7038;-66
2022/03/24 05:50:03;;;;;;;;;;;;;;;;;;1904861;28;7408;-65
2022/03/24 05:51:01;;;;;;;;;;;;;;;;;;1904969;28;7021;-65
2022/03/24 05:51:58;;;;;;;;;;;;;;;;;;1904491;28;7679;-67
2022/03/24 05:52:56;;;;;;;;;;;;;;;;;;1902769;28;7038;-66
2022/03/24 05:53:53;;;;;;;;;;;;;;;;;;1905187;28;7096;-67
2022/03/24 05:54:51;;;;;;;;;;;;;;;;;;1903554;28;7149;-68
2022/03/24 05:55:48;;;;;;;;;;;;;;;;;;1904140;28;7033;-65
2022/03/24 05:56:47;;;;;;;;;;;;;;;;;;1902119;28;7085;-66
2022/03/24 05:57:44;;;;;;;;;;;;;;;;;;1900158;28;7191;-65
2022/03/24 05:58:42;;;;;;;;;;;;;;;;;;1902843;28;7009;-67
2022/03/24 05:59:39;;;;;;;;;;;;;;;;;;1897810;28;7010;-66
2022/03/24 06:00:38;;;;;;;;;;;;;;;;;;1903557;28;7092;-67
2022/03/24 06:01:36;;;;;;;;;;;;;;;;;;1904410;28;7422;-66
2022/03/24 06:02:34;;;;;;;;;;;;;;;;;;1904372;28;7041;-68
2022/03/24 06:03:35;;;;;;;;;;;;;;;;;;1903860;28;7021;-67
2022/03/24 06:04:34;;;;;;;;;;;;;;;;;;1903824;28;7045;-68
2022/03/24 06:05:31;;;;;;;;;;;;;;;;;;1903034;28;7013;-67
2022/03/24 06:06:32;;;;;;;;;;;;;;;;;;1904549;28;7057;-65
2022/03/24 06:07:29;;;;;;;;;;;;;;;;;;1904122;28;7025;-65
2022/03/24 06:08:27;;;;;;;;;;;;;;;;;;1904150;28;7017;-67
2022/03/24 06:09:24;;;;;;;;;;;;;;;;;;1903269;28;8327;-66
2022/03/24 06:10:22;;;;;;;;;;;;;;;;;;1904139;28;7029;-66
2022/03/24 06:11:20;;;;;;;;;;;;;;;;;;1904296;28;7204;-68
2022/03/24 06:12:18;;;;;;;;;;;;;;;;;;1904012;28;7017;-67
2022/03/24 06:13:15;;;;;;;;;;;;;;;;;;1904060;28;7053;-66
2022/03/24 06:14:13;;;;;;;;;;;;;;;;;;1904181;28;7009;-68
2022/03/24 06:15:11;;;;;;;;;;;;;;;;;;1903593;28;7100;-67
2022/03/24 06:16:09;;;;;;;;;;;;;;;;;;1903156;28;7046;-66
2022/03/24 06:17:08;;;;;;;;;;;;;;;;;;1903737;28;7005;-66
2022/03/24 06:18:06;;;;;;;;;;;;;;;;;;1903673;28;7022;-65
2022/03/24 06:19:03;;;;;;;;;;;;;;;;;;1904469;28;7134;-68
2022/03/24 06:20:03;;;;;;;;;;;;;;;;;;1903632;28;7010;-67
2022/03/24 06:21:01;;;;;;;;;;;;;;;;;;1904343;28;7017;-65
2022/03/24 06:21:59;;;;;;;;;;;;;;;;;;1904066;28;8005;-67
2022/03/24 06:22:56;;;;;;;;;;;;;;;;;;1904324;28;7096;-67
2022/03/24 06:23:53;;;;;;;;;;;;;;;;;;1904897;28;7005;-66
2022/03/24 06:24:51;;;;;;;;;;;;;;;;;;1903320;28;7104;-66
2022/03/24 06:25:48;;;;;;;;;;;;;;;;;;1904024;28;7014;-66
2022/03/24 06:26:46;;;;;;;;;;;;;;;;;;1904360;28;7109;-65
2022/03/24 06:27:43;;;;;;;;;;;;;;;;;;1904863;28;8040;-66
2022/03/24 06:28:41;;;;;;;;;;;;;;;;;;1904315;28;7010;-66
2022/03/24 06:29:39;;;;;;;;;;;;;;;;;;1904415;28;7005;-66
2022/03/24 06:30:37;;;;;;;;;;;;;;;;;;1903325;28;7005;-68
2022/03/24 06:31:34;;;;;;;;;;;;;;;;;;1904328;28;7009;-66
2022/03/24 06:32:32;;;;;;;;;;;;;;;;;;1904562;28;7009;-68
2022/03/24 06:33:29;;;;;;;;;;;;;;;;;;1903932;28;7017;-66
2022/03/24 06:34:27;;;;;;;;;;;;;;;;;;1904433;28;9229;-66
2022/03/24 06:35:25;;;;;;;;;;;;;;;;;;1902818;28;7363;-66
2022/03/24 06:36:22;;;;;;;;;;;;;;;;;;1903344;28;7045;-67
2022/03/24 06:37:19;;;;;;;;;;;;;;;;;;1904287;28;7335;-68
2022/03/24 06:38:18;;;;;;;;;;;;;;;;;;1904398;28;7033;-65
2022/03/24 06:39:15;;;;;;;;;;;;;;;;;;1903199;28;7009;-66
2022/03/24 06:40:14;;;;;;;;;;;;;;;;;;1903321;28;7017;-67
2022/03/24 06:41:14;;;;;;;;;;;;;;;;;;1904588;28;7358;-67
2022/03/24 06:42:11;;;;;;;;;;;;;;;;;;1904167;28;7092;-67
2022/03/24 06:43:12;;;;;;;;;;;;;;;;;;1904076;28;7057;-65
2022/03/24 06:44:10;;;;;;;;;;;;;;;;;;1904214;28;7303;-67
2022/03/24 06:45:08;;;;;;;;;;;;;;;;;;1904051;28;7096;-67